Time;durP1;ratioP1;P1;durP2;ratioP2;P2;SDS_P1;SDS_P2;PMS_P1;PMS_P2;Temp;Humidity;BMP_temperature;BMP_pressure;BME280_temperature;BME280_humidity;BME280_pressure;Samples;Min_cycle;Max_cycle;Signal;HPM_P1;HPM_P2
2023/08/19 00:00:24;;;;;;;;;;;;;;;24.51;45.88;94715.00;4162504;28;20388;-76
2023/08/19 00:02:26;;;;;;;;;;;;;;;24.45;45.79;94719.41;4164044;28;19997;-79
2023/08/19 00:04:27;;;;;;;;;;;;;;;24.44;46.20;94715.13;4173779;28;20414;-76
2023/08/19 00:06:39;;;;;;;;;;;;;;;24.44;46.22;94717.00;4172939;28;19921;-76
2023/08/19 00:08:41;;;;;;;;;;;;;;;24.40;46.21;94721.22;4175715;28;20011;-75
2023/08/19 00:10:43;;;;;;;;;;;;;;;24.39;46.30;94719.59;4180681;28;20482;-80
2023/08/19 00:12:44;;;;;;;;;;;;;;;24.41;46.15;94712.94;4180949;28;19967;-79
2023/08/19 00:14:47;;;;;;;;;;;;;;;24.46;45.97;94717.56;4175958;28;19927;-76
2023/08/19 00:16:49;;;;;;;;;;;;;;;24.39;45.93;94720.41;4174010;28;19927;-77
2023/08/19 00:18:51;;;;;;;;;;;;;;;24.26;46.07;94726.09;4179611;28;19921;-77
2023/08/19 00:20:52;;;;;;;;;;;;;;;24.18;46.26;94721.13;4189745;28;20509;-78
2023/08/19 00:22:57;;;;;;;;;;;;;;;24.22;46.36;94724.94;4193205;28;19935;-74
2023/08/19 00:25:00;;;;;;;;;;;;;;;24.12;46.41;94718.38;4184729;28;19956;-76
2023/08/19 00:27:01;;;;;;;;;;;;;;;24.06;46.75;94722.03;4191616;28;19980;-76
2023/08/19 00:29:03;;;;;;;;;;;;;;;24.04;46.78;94713.44;4181362;28;19975;-75
2023/08/19 00:31:08;;;;;;;;;;;;;;;23.95;46.66;94706.88;4186661;28;19921;-77
2023/08/19 00:33:09;;;;;;;;;;;;;;;24.04;46.39;94707.28;4186123;28;19930;-76
2023/08/19 00:35:11;;;;;;;;;;;;;;;24.09;46.36;94696.66;4176417;28;20008;-77
2023/08/19 00:37:13;;;;;;;;;;;;;;;24.10;46.41;94692.94;4161515;28;19932;-77
2023/08/19 00:39:15;;;;;;;;;;;;;;;24.08;46.47;94700.38;4190127;28;19960;-77
2023/08/19 00:41:18;;;;;;;;;;;;;;;24.11;46.58;94695.38;4184749;28;20206;-77
2023/08/19 00:43:20;;;;;;;;;;;;;;;23.98;46.62;94690.31;4190603;28;19921;-77
2023/08/19 00:45:21;;;;;;;;;;;;;;;24.01;46.70;94691.72;4189864;28;19976;-76
2023/08/19 00:47:23;;;;;;;;;;;;;;;24.07;46.49;94699.59;4191777;28;19928;-76
2023/08/19 00:49:25;;;;;;;;;;;;;;;24.11;46.43;94695.38;4185307;28;19921;-75
2023/08/19 00:51:27;;;;;;;;;;;;;;;24.18;46.38;94686.34;4182581;28;19925;-78
2023/08/19 00:53:28;;;;;;;;;;;;;;;24.07;46.21;94698.75;4178640;28;19990;-77
2023/08/19 00:55:30;;;;;;;;;;;;;;;23.97;46.72;94694.06;4178143;28;19925;-78
2023/08/19 00:57:32;;;;;;;;;;;;;;;23.92;46.67;94692.13;4173894;28;19928;-77
2023/08/19 00:59:34;;;;;;;;;;;;;;;23.95;46.61;94682.78;4162969;28;20031;-78
2023/08/19 01:01:36;;;;;;;;;;;;;;;23.94;46.76;94689.22;4175988;28;19920;-75
2023/08/19 01:03:37;;;;;;;;;;;;;;;23.92;46.62;94691.31;4176253;28;19932;-76
2023/08/19 01:05:45;;;;;;;;;;;;;;;23.88;46.89;94687.50;4170914;28;20028;-79
2023/08/19 01:08:05;;;;;;;;;;;;;;;23.91;46.54;94690.47;4179315;28;20289;-77
2023/08/19 01:10:12;;;;;;;;;;;;;;;23.87;46.73;94686.66;4179237;28;19939;-78
2023/08/19 01:12:23;;;;;;;;;;;;;;;23.88;46.96;94687.50;4187240;28;19924;-75
2023/08/19 01:14:43;;;;;;;;;;;;;;;23.91;46.48;94690.47;4187031;28;19924;-78
2023/08/19 01:16:45;;;;;;;;;;;;;;;23.82;46.81;94688.47;4177100;28;19937;-77
2023/08/19 01:18:47;;;;;;;;;;;;;;;23.81;46.70;94702.88;4163145;28;19964;-76
2023/08/19 01:20:49;;;;;;;;;;;;;;;23.77;46.76;94691.88;4160864;28;19921;-77
2023/08/19 01:22:54;;;;;;;;;;;;;;;23.71;46.83;94700.81;4177737;28;19928;-77
2023/08/19 01:24:56;;;;;;;;;;;;;;;23.61;47.25;94701.44;4166739;28;19924;-76
2023/08/19 01:26:58;;;;;;;;;;;;;;;23.57;47.43;94694.94;4178940;28;19921;-78
2023/08/19 01:29:00;;;;;;;;;;;;;;;23.53;47.86;94688.44;4178628;28;20007;-77
2023/08/19 01:31:01;;;;;;;;;;;;;;;23.45;48.19;94700.34;4177938;28;20398;-78
2023/08/19 01:33:03;;;;;;;;;;;;;;;23.49;48.17;94696.16;4167442;28;19959;-76
2023/08/19 01:35:08;;;;;;;;;;;;;;;23.56;48.04;94695.19;4176784;28;19990;-80
2023/08/19 01:37:13;;;;;;;;;;;;;;;23.53;48.00;94696.47;4175387;28;20263;-78
2023/08/19 01:39:15;;;;;;;;;;;;;;;23.54;47.94;94691.97;4176463;28;19929;-77
2023/08/19 01:41:17;;;;;;;;;;;;;;;23.46;48.14;94682.44;4175988;28;19940;-75
2023/08/19 01:43:19;;;;;;;;;;;;;;;23.34;48.17;94681.69;4177077;28;20011;-79
2023/08/19 01:45:21;;;;;;;;;;;;;;;23.30;48.41;94673.34;4167965;28;20268;-77
2023/08/19 01:47:26;;;;;;;;;;;;;;;23.29;48.57;94683.19;4174308;28;19947;-76
2023/08/19 01:49:27;;;;;;;;;;;;;;;23.26;48.35;94675.69;4176458;28;20330;-79
2023/08/19 01:51:30;;;;;;;;;;;;;;;23.28;48.30;94673.56;4159761;28;19929;-80
2023/08/19 01:53:32;;;;;;;;;;;;;;;23.27;48.65;94668.47;4167834;28;19920;-77
2023/08/19 01:55:34;;;;;;;;;;;;;;;23.30;48.63;94671.47;4178715;28;19978;-79
2023/08/19 01:57:35;;;;;;;;;;;;;;;23.27;48.67;94668.47;4165758;28;19944;-76
2023/08/19 01:59:37;;;;;;;;;;;;;;;23.30;48.59;94676.81;4166051;28;20015;-79
2023/08/19 02:01:38;;;;;;;;;;;;;;;23.31;48.27;94681.09;4178734;28;19921;-77
2023/08/19 02:03:40;;;;;;;;;;;;;;;23.19;48.50;94675.00;4178023;28;20356;-77
2023/08/19 02:05:42;;;;;;;;;;;;;;;23.14;48.57;94674.91;4176834;28;19921;-78
2023/08/19 02:07:44;;;;;;;;;;;;;;;23.17;48.94;94681.66;4179302;28;20427;-79
2023/08/19 02:09:46;;;;;;;;;;;;;;;22.96;49.58;94683.06;4179251;28;19931;-76
2023/08/19 02:11:47;;;;;;;;;;;;;;;22.84;49.67;94675.91;4179090;28;19971;-77
2023/08/19 02:13:49;;;;;;;;;;;;;;;22.93;49.73;94680.84;4176225;28;19920;-75
2023/08/19 02:15:51;;;;;;;;;;;;;;;23.00;49.28;94682.41;4177271;28;20015;-77
2023/08/19 02:17:52;;;;;;;;;;;;;;;22.95;49.38;94682.28;4177423;28;19963;-78
2023/08/19 02:19:54;;;;;;;;;;;;;;;22.96;49.36;94685.75;4177336;28;19936;-78
2023/08/19 02:21:55;;;;;;;;;;;;;;;22.95;49.74;94681.44;4164612;28;19921;-75
2023/08/19 02:23:57;;;;;;;;;;;;;;;22.95;49.44;94682.28;4168233;28;20366;-75
2023/08/19 02:25:59;;;;;;;;;;;;;;;22.78;50.23;94682.19;4163017;28;20007;-78
2023/08/19 02:28:00;;;;;;;;;;;;;;;22.77;50.16;94674.41;4175643;28;19932;-76
2023/08/19 02:30:02;;;;;;;;;;;;;;;22.74;50.02;94682.91;4185750;28;19993;-76
2023/08/19 02:32:04;;;;;;;;;;;;;;;22.79;50.05;94673.13;4172001;28;19932;-78
2023/08/19 02:34:06;;;;;;;;;;;;;;;22.79;50.16;94672.31;4176323;28;20016;-76
2023/08/19 02:36:07;;;;;;;;;;;;;;;22.84;49.65;94681.25;4178767;28;19971;-76
2023/08/19 02:38:09;;;;;;;;;;;;;;;22.89;49.85;94675.19;4185517;28;19921;-79
2023/08/19 02:40:10;;;;;;;;;;;;;;;22.83;49.84;94679.63;4177501;28;20023;-78
2023/08/19 02:42:15;;;;;;;;;;;;;;;22.71;50.23;94678.81;4174844;28;20379;-77
2023/08/19 02:44:17;;;;;;;;;;;;;;;22.67;50.18;94681.16;4191577;28;19927;-75
2023/08/19 02:46:19;;;;;;;;;;;;;;;22.68;50.41;94679.28;4160874;28;19940;-75
2023/08/19 02:48:21;;;;;;;;;;;;;;;22.63;50.30;94681.88;4176551;28;20019;-77
2023/08/19 02:50:23;;;;;;;;;;;;;;;22.68;49.98;94698.78;4169027;28;20379;-75
2023/08/19 02:52:24;;;;;;;;;;;;;;;22.75;49.87;94687.19;4172630;28;19947;-77
2023/08/19 02:54:26;;;;;;;;;;;;;;;22.73;49.86;94686.59;4170313;28;20246;-77
2023/08/19 02:56:28;;;;;;;;;;;;;;;22.70;49.87;94686.03;4169220;28;20356;-77
2023/08/19 02:58:30;;;;;;;;;;;;;;;22.68;50.01;94687.31;4176471;28;19936;-75
2023/08/19 03:00:35;;;;;;;;;;;;;;;22.64;49.97;94686.16;4176952;28;19925;-75
2023/08/19 03:02:37;;;;;;;;;;;;;;;22.66;49.80;94689.41;4177338;28;19920;-76
2023/08/19 03:04:41;;;;;;;;;;;;;;;22.56;50.00;94689.19;4147654;28;20425;-75
2023/08/19 03:06:42;;;;;;;;;;;;;;;22.47;50.10;94691.38;4172107;28;19929;-79
2023/08/19 03:08:44;;;;;;;;;;;;;;;22.52;50.21;94693.34;4176596;28;19936;-77
2023/08/19 03:10:46;;;;;;;;;;;;;;;22.47;50.16;94694.06;4177119;28;19955;-77
2023/08/19 03:12:47;;;;;;;;;;;;;;;22.47;50.14;94694.06;4176586;28;19936;-77
2023/08/19 03:14:49;;;;;;;;;;;;;;;22.50;50.33;94693.59;4177133;28;20321;-77
2023/08/19 03:16:51;;;;;;;;;;;;;;;22.49;49.89;94695.44;4176063;28;19947;-80
2023/08/19 03:18:52;;;;;;;;;;;;;;;22.53;50.23;94697.66;4183253;28;20059;-77
2023/08/19 03:20:57;;;;;;;;;;;;;;;22.55;49.94;94695.56;4161155;28;20326;-78
2023/08/19 03:22:59;;;;;;;;;;;;;;;22.59;50.03;94686.84;4159508;28;19972;-80
2023/08/19 03:25:00;;;;;;;;;;;;;;;22.58;50.05;94695.91;4166801;28;20407;-76
2023/08/19 03:27:02;;;;;;;;;;;;;;;22.58;49.87;94690.56;4169142;28;20058;-76
2023/08/19 03:29:04;;;;;;;;;;;;;;;22.57;49.79;94698.81;4160772;28;19931;-79
2023/08/19 03:31:11;;;;;;;;;;;;;;;22.62;50.02;94690.91;4174467;28;20287;-77
2023/08/19 03:33:14;;;;;;;;;;;;;;;22.56;50.23;94705.19;4170392;28;19921;-78
2023/08/19 03:35:16;;;;;;;;;;;;;;;22.60;50.02;94701.00;4172982;28;20512;-80
2023/08/19 03:37:17;;;;;;;;;;;;;;;22.48;50.21;94693.03;4178673;28;20023;-79
2023/08/19 03:39:19;;;;;;;;;;;;;;;22.45;50.06;94694.28;4179528;28;20322;-77
2023/08/19 03:41:22;;;;;;;;;;;;;;;22.47;50.12;94694.84;4171211;28;20292;-78
2023/08/19 03:43:23;;;;;;;;;;;;;;;22.42;50.03;94693.97;4161730;28;19928;-77
2023/08/19 03:45:25;;;;;;;;;;;;;;;22.41;49.99;94690.47;4177868;28;19992;-76
2023/08/19 03:47:27;;;;;;;;;;;;;;;22.37;50.21;94689.31;4179992;28;20288;-78
2023/08/19 03:49:29;;;;;;;;;;;;;;;22.40;49.97;94688.84;4178328;28;19998;-76
2023/08/19 03:51:30;;;;;;;;;;;;;;;22.37;50.29;94691.16;4178637;28;19927;-78
2023/08/19 03:53:32;;;;;;;;;;;;;;;22.44;50.18;94686.53;4170870;28;19921;-77
2023/08/19 03:55:34;;;;;;;;;;;;;;;22.48;49.90;94687.69;4176616;28;20382;-78
2023/08/19 03:57:35;;;;;;;;;;;;;;;22.40;49.71;94696.03;4163796;28;19935;-78
2023/08/19 03:59:37;;;;;;;;;;;;;;;22.43;49.64;94691.03;4164115;28;19996;-78
2023/08/19 04:01:39;;;;;;;;;;;;;;;22.40;49.85;94693.38;4176079;28;19920;-78
2023/08/19 04:03:41;;;;;;;;;;;;;;;22.45;49.57;94694.28;4168067;28;20020;-79
2023/08/19 04:05:43;;;;;;;;;;;;;;;22.55;49.22;94688.38;4172533;28;19993;-80
2023/08/19 04:07:44;;;;;;;;;;;;;;;22.71;49.26;94684.16;4165346;28;20401;-79
2023/08/19 04:09:46;;;;;;;;;;;;;;;22.98;48.15;94694.34;4166156;28;19927;-79
2023/08/19 04:11:51;;;;;;;;;;;;;;;22.87;48.16;94691.44;4178634;28;19927;-75
2023/08/19 04:13:53;;;;;;;;;;;;;;;22.74;48.95;94701.59;4180574;28;20058;-77
2023/08/19 04:15:59;;;;;;;;;;;;;;;22.61;48.99;94703.47;4168553;28;20024;-79
2023/08/19 04:18:01;;;;;;;;;;;;;;;22.57;49.41;94699.63;4177339;28;19970;-78
2023/08/19 04:20:09;;;;;;;;;;;;;;;22.66;49.07;94697.41;4171018;28;20287;-76
2023/08/19 04:22:14;;;;;;;;;;;;;;;22.61;49.50;94697.31;4185115;28;20255;-78
2023/08/19 04:24:16;;;;;;;;;;;;;;;22.63;49.31;94706.72;4172875;28;19925;-76
2023/08/19 04:26:18;;;;;;;;;;;;;;;22.51;49.63;94707.75;4175108;28;19921;-77
2023/08/19 04:28:20;;;;;;;;;;;;;;;22.45;49.95;94715.63;4166517;28;20306;-78
2023/08/19 04:30:22;;;;;;;;;;;;;;;22.57;49.76;94715.66;4163936;28;20031;-77
2023/08/19 04:32:23;;;;;;;;;;;;;;;22.45;50.05;94715.63;4163306;28;20040;-79
2023/08/19 04:34:25;;;;;;;;;;;;;;;22.54;49.78;94720.63;4164666;28;19999;-78
2023/08/19 04:36:27;;;;;;;;;;;;;;;22.61;49.92;94727.47;4169488;28;19927;-78
2023/08/19 04:38:28;;;;;;;;;;;;;;;22.70;49.28;94722.59;4178802;28;20331;-80
2023/08/19 04:40:33;;;;;;;;;;;;;;;22.79;49.58;94728.41;4178165;28;19974;-77
2023/08/19 04:42:37;;;;;;;;;;;;;;;22.81;49.34;94734.31;4179777;28;20039;-77
2023/08/19 04:44:39;;;;;;;;;;;;;;;22.86;49.04;94737.09;4176304;28;20339;-76
2023/08/19 04:46:41;;;;;;;;;;;;;;;22.85;48.89;94725.59;4165594;28;19943;-77
2023/08/19 04:48:42;;;;;;;;;;;;;;;22.87;49.20;94731.50;4173697;28;19921;-77
2023/08/19 04:50:44;;;;;;;;;;;;;;;22.99;49.05;94736.03;4168120;28;20369;-78
2023/08/19 04:52:46;;;;;;;;;;;;;;;22.97;48.75;94741.59;4177427;28;19936;-78
2023/08/19 04:54:48;;;;;;;;;;;;;;;23.08;48.65;94740.81;4174405;28;20015;-79
2023/08/19 04:56:50;;;;;;;;;;;;;;;23.15;48.35;94735.31;4177567;28;19956;-77
2023/08/19 04:58:51;;;;;;;;;;;;;;;23.21;48.38;94739.72;4163993;28;19920;-78
2023/08/19 05:00:53;;;;;;;;;;;;;;;23.30;48.13;94743.66;4169840;28;19947;-78
2023/08/19 05:02:54;;;;;;;;;;;;;;;23.29;47.95;94747.34;4179160;28;19931;-76
2023/08/19 05:04:56;;;;;;;;;;;;;;;;;;4164170;28;19989;-78
2023/08/19 05:06:57;;;;;;;;;;;;;;;23.31;48.11;94742.56;4176470;28;19951;-77
2023/08/19 05:08:59;;;;;;;;;;;;;;;23.43;47.87;94744.44;4179221;28;19920;-78
2023/08/19 05:11:01;;;;;;;;;;;;;;;23.47;47.69;94745.56;4170198;28;19933;-81
2023/08/19 05:13:02;;;;;;;;;;;;;;;23.45;47.51;94745.00;4174375;28;19932;-78
2023/08/19 05:15:05;;;;;;;;;;;;;;;23.39;47.79;94748.63;4163589;28;19992;-77
2023/08/19 05:17:07;;;;;;;;;;;;;;;23.48;47.43;94750.66;4170926;28;19925;-77
2023/08/19 05:19:19;;;;;;;;;;;;;;;23.48;47.54;94749.84;4164150;28;19924;-76
2023/08/19 05:21:20;;;;;;;;;;;;;;;23.38;47.82;94752.31;4174634;28;20008;-78
2023/08/19 05:23:22;;;;;;;;;;;;;;;23.47;47.79;94749.06;4163231;28;19927;-79
2023/08/19 05:25:25;;;;;;;;;;;;;;;23.52;47.48;94746.47;4171485;28;20103;-78
2023/08/19 05:27:27;;;;;;;;;;;;;;;23.51;47.47;94752.88;4165907;28;20295;-76
2023/08/19 05:29:28;;;;;;;;;;;;;;;23.63;47.48;94746.66;4164754;28;19921;-79
2023/08/19 05:31:30;;;;;;;;;;;;;;;23.64;47.52;94743.75;4178167;28;19920;-77
2023/08/19 05:33:31;;;;;;;;;;;;;;;23.72;47.37;94750.56;4168006;28;19927;-77
2023/08/19 05:35:33;;;;;;;;;;;;;;;23.63;47.15;94741.31;4162298;28;19935;-79
2023/08/19 05:37:35;;;;;;;;;;;;;;;23.60;47.48;94745.28;4174119;28;19928;-78
2023/08/19 05:39:37;;;;;;;;;;;;;;;23.50;47.30;94737.06;4168491;28;20327;-80
2023/08/19 05:41:39;;;;;;;;;;;;;;;23.71;47.21;94744.41;4176007;28;19928;-78
2023/08/19 05:43:41;;;;;;;;;;;;;;;23.86;47.01;94740.44;4177831;28;19943;-78
2023/08/19 05:45:43;;;;;;;;;;;;;;;23.74;47.02;94739.63;4166330;28;20269;-77
2023/08/19 05:47:45;;;;;;;;;;;;;;;23.54;47.40;94738.22;4175303;28;19929;-78
2023/08/19 05:49:46;;;;;;;;;;;;;;;23.56;47.63;94736.13;4178117;28;20454;-78
2023/08/19 05:51:48;;;;;;;;;;;;;;;23.58;47.55;94731.34;4177324;28;20294;-77
2023/08/19 05:53:49;;;;;;;;;;;;;;;23.27;48.23;94727.25;4167901;28;19991;-78
2023/08/19 05:55:51;;;;;;;;;;;;;;;23.42;48.40;94732.91;4169754;28;20435;-77
2023/08/19 05:57:53;;;;;;;;;;;;;;;23.43;48.44;94733.72;4170036;28;19920;-78
2023/08/19 05:59:55;;;;;;;;;;;;;;;23.44;48.09;94733.47;4178664;28;19921;-77
2023/08/19 06:01:57;;;;;;;;;;;;;;;23.39;48.42;94737.94;4169735;28;19929;-79
2023/08/19 06:03:58;;;;;;;;;;;;;;;23.38;48.61;94734.44;4172809;28;19921;-78
2023/08/19 06:06:06;;;;;;;;;;;;;;;23.47;48.80;94740.22;4172027;28;19975;-78
2023/08/19 06:08:09;;;;;;;;;;;;;;;23.54;48.57;94735.53;4175623;28;19921;-78
2023/08/19 06:10:13;;;;;;;;;;;;;;;23.57;48.47;94748.41;4174289;28;19943;-77
2023/08/19 06:12:15;;;;;;;;;;;;;;;23.71;48.19;94744.41;4177643;28;19967;-77
2023/08/19 06:14:16;;;;;;;;;;;;;;;23.70;48.16;94745.47;4172997;28;20431;-79
2023/08/19 06:16:18;;;;;;;;;;;;;;;23.74;48.34;94753.81;4169381;28;19933;-77
2023/08/19 06:18:20;;;;;;;;;;;;;;;23.65;48.32;94755.25;4177684;28;20399;-79
2023/08/19 06:20:21;;;;;;;;;;;;;;;23.61;47.94;94748.75;4170953;28;19921;-78
2023/08/19 06:22:23;;;;;;;;;;;;;;;23.69;47.95;94759.09;4171002;28;19921;-77
2023/08/19 06:24:27;;;;;;;;;;;;;;;23.82;47.77;94758.00;4168651;28;19925;-78
2023/08/19 06:26:29;;;;;;;;;;;;;;;23.89;47.57;94759.47;4164777;28;19971;-81
2023/08/19 06:28:30;;;;;;;;;;;;;;;24.03;47.11;94762.66;4178411;28;20388;-79
2023/08/19 06:30:32;;;;;;;;;;;;;;;24.19;46.97;94765.59;4178003;28;19920;-78
2023/08/19 06:32:36;;;;;;;;;;;;;;;24.39;46.05;94763.22;4164991;28;20034;-80
2023/08/19 06:34:38;;;;;;;;;;;;;;;24.47;45.80;94770.06;4177912;28;19960;-78
2023/08/19 06:36:40;;;;;;;;;;;;;;;24.50;45.69;94767.75;4168872;28;19959;-79
2023/08/19 06:38:46;;;;;;;;;;;;;;;24.66;45.13;94770.66;4156404;28;19955;-78
2023/08/19 06:40:56;;;;;;;;;;;;;;;24.82;44.61;94761.75;4177014;28;20309;-78
2023/08/19 06:42:57;;;;;;;;;;;;;;;25.00;44.65;94770.59;4177132;28;19924;-79
2023/08/19 06:44:59;;;;;;;;;;;;;;;25.00;44.41;94765.25;4173276;28;20379;-77
2023/08/19 06:47:02;;;;;;;;;;;;;;;25.13;44.30;94765.69;4177997;28;19959;-79
2023/08/19 06:49:06;;;;;;;;;;;;;;;25.13;44.10;94763.00;4166167;28;19925;-78
2023/08/19 06:51:09;;;;;;;;;;;;;;;25.17;43.93;94763.31;4172904;28;19964;-79
2023/08/19 06:53:11;;;;;;;;;;;;;;;25.33;44.05;94765.16;4167416;28;19921;-79
2023/08/19 06:55:13;;;;;;;;;;;;;;;25.42;44.00;94765.50;4173683;28;20047;-76
2023/08/19 06:57:25;;;;;;;;;;;;;;;25.51;43.30;94763.19;4168063;28;20016;-83
2023/08/19 06:59:31;;;;;;;;;;;;;;;25.30;43.88;94762.97;4179513;28;19983;-78
2023/08/19 07:01:34;;;;;;;;;;;;;;;25.21;43.94;94761.81;4179186;28;20360;-79
2023/08/19 07:03:36;;;;;;;;;;;;;;;25.23;43.77;94762.38;4174706;28;19921;-79
2023/08/19 07:05:38;;;;;;;;;;;;;;;25.32;44.05;94762.75;4170801;28;19945;-78
2023/08/19 07:07:42;;;;;;;;;;;;;;;25.40;43.26;94767.63;4184420;28;19943;-77
2023/08/19 07:09:44;;;;;;;;;;;;;;;25.28;43.79;94753.56;4191897;28;19921;-79
2023/08/19 07:11:46;;;;;;;;;;;;;;;25.32;43.47;94763.53;4187556;28;20294;-75
2023/08/19 07:13:47;;;;;;;;;;;;;;;25.35;43.35;94759.53;4186414;28;20004;-77
2023/08/19 07:18:47;;;;;;;;;;;;;;;25.73;42.54;94757.84;4187977;28;20209;-78
2023/08/19 07:20:49;;;;;;;;;;;;;;;25.73;42.00;94766.69;4194005;28;20015;-78
2023/08/19 07:22:52;;;;;;;;;;;;;;;25.78;41.75;94757.06;4172998;28;19988;-78
2023/08/19 07:24:53;;;;;;;;;;;;;;;26.04;41.02;94758.97;4183556;28;19952;-76
2023/08/19 07:27:01;;;;;;;;;;;;;;;26.25;40.00;94762.63;4186298;28;19925;-77
2023/08/19 07:29:03;;;;;;;;;;;;;;;26.47;39.67;94759.06;4196119;28;20443;-77
2023/08/19 07:31:05;;;;;;;;;;;;;;;26.65;39.16;94761.38;4179097;28;19952;-77
2023/08/19 07:33:10;;;;;;;;;;;;;;;26.68;38.09;94752.00;4183366;28;19921;-78
2023/08/19 07:35:11;;;;;;;;;;;;;;;26.86;37.55;94751.56;4167987;28;20030;-78
2023/08/19 07:37:13;;;;;;;;;;;;;;;26.98;37.62;94754.06;4169373;28;19997;-78
2023/08/19 07:39:15;;;;;;;;;;;;;;;26.95;37.23;94755.38;4171426;28;19920;-78
2023/08/19 07:41:18;;;;;;;;;;;;;;;26.96;37.10;94754.31;4182528;28;19936;-78
2023/08/19 07:43:20;;;;;;;;;;;;;;;26.71;36.69;94754.94;4182688;28;19924;-78
2023/08/19 07:45:22;;;;;;;;;;;;;;;26.35;37.24;94748.50;4180046;28;19976;-78
2023/08/19 07:47:23;;;;;;;;;;;;;;;26.41;37.71;94755.50;4164750;28;20368;-77
2023/08/19 07:49:25;;;;;;;;;;;;;;;26.52;37.52;94762.59;4178188;28;20300;-79
2023/08/19 07:51:27;;;;;;;;;;;;;;;26.70;37.15;94757.91;4166966;28;19921;-80
2023/08/19 07:53:28;;;;;;;;;;;;;;;26.83;37.14;94749.41;4172900;28;19925;-78
2023/08/19 07:55:31;;;;;;;;;;;;;;;26.55;37.30;94755.91;4177446;28;19931;-79
2023/08/19 07:57:33;;;;;;;;;;;;;;;26.46;37.86;94749.41;4164441;28;19940;-79
2023/08/19 07:59:35;;;;;;;;;;;;;;;26.42;38.17;94764.41;4175388;28;19935;-81
2023/08/19 08:01:36;;;;;;;;;;;;;;;26.70;37.81;94760.59;4168045;28;20024;-78
2023/08/19 08:03:39;;;;;;;;;;;;;;;26.51;38.24;94760.97;4176781;28;19964;-77
2023/08/19 08:05:40;;;;;;;;;;;;;;;26.58;38.60;94752.72;4162373;28;20404;-80
2023/08/19 08:07:42;;;;;;;;;;;;;;;26.85;38.77;94757.22;4173051;28;20008;-78
2023/08/19 08:09:45;;;;;;;;;;;;;;;27.03;37.92;94764.03;4166736;28;20344;-78
2023/08/19 08:11:48;;;;;;;;;;;;;;;27.08;37.83;94756.81;4159028;28;20241;-80
2023/08/19 08:13:52;;;;;;;;;;;;;;;26.95;37.84;94763.44;4173355;28;19956;-79
2023/08/19 08:15:54;;;;;;;;;;;;;;;26.67;37.85;94761.09;4180622;28;20011;-79
2023/08/19 08:17:56;;;;;;;;;;;;;;;26.75;38.14;94768.69;4177752;28;19921;-78
2023/08/19 08:19:57;;;;;;;;;;;;;;;26.83;38.17;94756.66;4164449;28;19967;-80
2023/08/19 08:21:59;;;;;;;;;;;;;;;26.98;37.78;94764.00;4171415;28;20196;-78
2023/08/19 08:24:00;;;;;;;;;;;;;;;27.12;37.87;94762.44;4168600;28;19983;-79
2023/08/19 08:26:05;;;;;;;;;;;;;;;27.32;38.14;94759.91;4177125;28;19931;-78
2023/08/19 08:28:06;;;;;;;;;;;;;;;27.58;37.17;94765.38;4168452;28;19924;-78
2023/08/19 08:30:08;;;;;;;;;;;;;;;27.66;37.49;94762.19;4173093;28;19943;-78
2023/08/19 08:32:10;;;;;;;;;;;;;;;27.63;37.87;94751.13;4165676;28;20311;-80
2023/08/19 08:34:11;;;;;;;;;;;;;;;27.30;38.04;94759.34;4177772;28;19920;-76
2023/08/19 08:36:13;;;;;;;;;;;;;;;27.15;38.81;94761.94;4175120;28;19975;-78
2023/08/19 08:38:15;;;;;;;;;;;;;;;27.32;38.54;94757.22;4164305;28;19921;-78
2023/08/19 08:40:16;;;;;;;;;;;;;;;27.23;38.08;94750.69;4175682;28;19959;-77
2023/08/19 08:42:18;;;;;;;;;;;;;;;27.04;38.75;94757.56;4178441;28;20467;-78
2023/08/19 08:44:20;;;;;;;;;;;;;;;27.10;38.72;94745.75;4177968;28;20431;-78
2023/08/19 08:46:21;;;;;;;;;;;;;;;27.15;38.48;94748.50;4177779;28;20014;-79
2023/08/19 08:48:23;;;;;;;;;;;;;;;27.31;38.20;94752.88;4178584;28;19925;-83
2023/08/19 08:50:27;;;;;;;;;;;;;;;27.09;38.27;94753.03;4179335;28;20389;-77
2023/08/19 08:52:29;;;;;;;;;;;;;;;26.74;38.85;94757.13;4177833;28;20178;-82
2023/08/19 08:54:30;;;;;;;;;;;;;;;26.48;39.49;94764.19;4177811;28;20268;-78
2023/08/19 08:56:32;;;;;;;;;;;;;;;26.51;39.51;94752.91;4182958;28;19920;-79
2023/08/19 08:58:34;;;;;;;;;;;;;;;26.46;39.50;94757.44;4182146;28;20044;-80
2023/08/19 09:00:37;;;;;;;;;;;;;;;26.41;39.74;94752.81;4181892;28;19920;-77
2023/08/19 09:02:39;;;;;;;;;;;;;;;26.42;39.32;94753.66;4179778;28;20016;-79
2023/08/19 09:04:43;;;;;;;;;;;;;;;26.65;39.13;94752.50;4178788;28;19920;-79
2023/08/19 09:06:45;;;;;;;;;;;;;;;26.85;38.95;94763.38;4164111;28;19998;-76
2023/08/19 09:08:50;;;;;;;;;;;;;;;27.01;38.44;94755.41;4164446;28;19990;-80
2023/08/19 09:10:54;;;;;;;;;;;;;;;26.88;38.69;94753.97;4175591;28;19975;-78
2023/08/19 09:12:57;;;;;;;;;;;;;;;26.84;38.83;94751.00;4184584;28;20024;-79
2023/08/19 09:15:02;;;;;;;;;;;;;;;27.04;38.81;94752.19;4168400;28;19974;-78
2023/08/19 09:17:04;;;;;;;;;;;;;;;27.36;38.08;94746.72;4170720;28;19925;-79
2023/08/19 09:19:06;;;;;;;;;;;;;;;27.57;37.64;94750.28;4165302;28;19925;-79
2023/08/19 09:21:07;;;;;;;;;;;;;;;27.71;37.21;94748.72;4163462;28;20447;-76
2023/08/19 09:23:09;;;;;;;;;;;;;;;27.78;36.62;94743.88;4163222;28;19924;-77
2023/08/19 09:25:14;;;;;;;;;;;;;;;27.82;36.03;94744.19;4171103;28;20130;-82
2023/08/19 09:27:17;;;;;;;;;;;;;;;27.95;34.92;94743.69;4179509;28;20019;-80
2023/08/19 09:29:22;;;;;;;;;;;;;;;27.94;34.88;94746.63;4165881;28;19920;-79
2023/08/19 09:31:25;;;;;;;;;;;;;;;27.98;34.90;94731.56;4166862;28;19921;-77
2023/08/19 09:33:26;;;;;;;;;;;;;;;28.03;34.29;94747.75;4171058;28;19986;-78
2023/08/19 09:35:36;;;;;;;;;;;;;;;28.09;34.25;94753.94;4164162;28;19921;-78
2023/08/19 09:37:59;;;;;;;;;;;;;;;28.44;33.78;94747.75;4167190;28;19928;-81
2023/08/19 09:40:07;;;;;;;;;;;;;;;28.61;33.79;94744.00;4170154;28;20020;-78
2023/08/19 09:42:09;;;;;;;;;;;;;;;28.68;33.37;94753.44;4173946;28;19932;-79
2023/08/19 09:44:14;;;;;;;;;;;;;;;28.74;33.06;94744.25;4170478;28;19925;-77
2023/08/19 09:46:16;;;;;;;;;;;;;;;28.71;33.10;94744.00;4169073;28;19932;-78
2023/08/19 09:48:17;;;;;;;;;;;;;;;28.74;32.85;94743.47;4172582;28;19931;-79
2023/08/19 09:50:19;;;;;;;;;;;;;;;28.96;32.55;94740.44;4169624;28;19963;-79
2023/08/19 09:52:21;;;;;;;;;;;;;;;29.07;32.70;94735.84;4168578;28;20333;-81
2023/08/19 09:54:23;;;;;;;;;;;;;;;29.21;32.06;94736.88;4170377;28;20253;-80
2023/08/19 09:56:25;;;;;;;;;;;;;;;29.28;32.19;94737.41;4173087;28;19921;-81
2023/08/19 09:58:27;;;;;;;;;;;;;;;29.25;32.76;94743.34;4171769;28;19921;-79
2023/08/19 10:00:29;;;;;;;;;;;;;;;29.20;32.31;94738.78;4173536;28;20182;-77
2023/08/19 10:02:31;;;;;;;;;;;;;;;29.30;32.21;94737.94;4171345;28;19988;-79
2023/08/19 10:04:33;;;;;;;;;;;;;;;29.18;32.11;94738.22;4162079;28;19944;-83
2023/08/19 10:06:36;;;;;;;;;;;;;;;29.36;32.45;94734.13;4164126;28;20003;-80
2023/08/19 10:08:38;;;;;;;;;;;;;;;29.51;32.18;94735.13;4169362;28;20309;-81
2023/08/19 10:10:41;;;;;;;;;;;;;;;29.53;32.13;94735.66;4168723;28;20293;-79
2023/08/19 10:12:43;;;;;;;;;;;;;;;29.38;32.37;94744.63;4171124;28;20007;-81
2023/08/19 10:14:44;;;;;;;;;;;;;;;29.38;32.07;94740.06;4148577;28;19925;-77
2023/08/19 10:16:47;;;;;;;;;;;;;;;29.58;31.94;94741.84;4166038;28;20349;-79
2023/08/19 10:18:49;;;;;;;;;;;;;;;29.68;31.97;94730.19;4164623;28;19925;-78
2023/08/19 10:20:54;;;;;;;;;;;;;;;29.63;32.21;94732.91;4175607;28;19924;-80
2023/08/19 10:22:56;;;;;;;;;;;;;;;29.81;32.12;94731.50;4173996;28;19971;-79
2023/08/19 10:24:57;;;;;;;;;;;;;;;29.91;31.64;94725.22;4175290;28;20065;-79
2023/08/19 10:26:59;;;;;;;;;;;;;;;29.95;30.51;94729.00;4177778;28;19925;-79
2023/08/19 10:29:03;;;;;;;;;;;;;;;30.04;30.61;94730.00;4177942;28;20371;-80
2023/08/19 10:31:05;;;;;;;;;;;;;;;29.67;30.94;94712.38;4175186;28;19931;-78
2023/08/19 10:33:27;;;;;;;;;;;;;;;29.88;31.12;94728.47;4167311;28;19921;-79
2023/08/19 10:35:28;;;;;;;;;;;;;;;30.11;30.98;94727.78;4167049;28;20364;-80
2023/08/19 10:37:30;;;;;;;;;;;;;;;30.05;30.84;94722.69;4174437;28;19925;-78
2023/08/19 10:39:32;;;;;;;;;;;;;;;30.27;30.51;94719.59;4168054;28;19928;-78
2023/08/19 10:41:35;;;;;;;;;;;;;;;30.37;30.32;94708.69;4170527;28;19975;-81